Time;durP1;ratioP1;P1;durP2;ratioP2;P2;SDS_P1;SDS_P2;PMS_P1;PMS_P2;Temp;Humidity;BMP_temperature;BMP_pressure;BME280_temperature;BME280_humidity;BME280_pressure;Samples;Min_cycle;Max_cycle;Signal;HPM_P1;HPM_P2
2021/10/30 00:00:42;;;;;;;8.08;7.28;;;;;;;16.92;49.01;101063.61;1818220;78;21012;-62
2021/10/30 00:03:08;;;;;;;8.33;7.53;;;;;;;16.92;49.00;101067.64;1809645;77;21012;-62
2021/10/30 00:05:35;;;;;;;8.20;7.40;;;;;;;16.92;49.03;101066.78;1839241;77;21106;-62
2021/10/30 00:08:01;;;;;;;8.73;7.25;;;;;;;16.91;49.04;101074.00;1817177;78;21009;-63
2021/10/30 00:10:29;;;;;;;7.75;7.00;;;;;;;16.90;49.02;101067.81;1827305;77;20974;-62
2021/10/30 00:12:55;;;;;;;8.70;7.80;;;;;;;16.89;49.04;101063.44;1803617;77;21067;-62
2021/10/30 00:15:22;;;;;;;8.28;7.28;;;;;;;16.88;49.03;101063.61;1796744;79;21303;-62
2021/10/30 00:17:48;;;;;;;8.23;7.42;;;;;;;16.88;49.03;101064.95;1797466;77;21062;-64
2021/10/30 00:20:14;;;;;;;10.23;7.92;;;;;;;16.86;49.07;101058.45;1796589;79;21146;-63
2021/10/30 00:22:41;;;;;;;9.45;8.45;;;;;;;16.86;49.05;101060.27;1796697;79;21532;-63
2021/10/30 00:25:08;;;;;;;8.05;7.25;;;;;;;16.85;49.05;101057.27;1820203;78;21497;-62
2021/10/30 00:27:35;;;;;;;8.05;7.25;;;;;;;16.84;49.05;101052.91;1829410;77;21474;-62
2021/10/30 00:30:02;;;;;;;8.90;8.00;;;;;;;16.83;49.06;101052.08;1829408;77;21134;-62
2021/10/30 00:32:29;;;;;;;8.60;7.80;;;;;;;16.82;49.07;101049.05;1829282;78;21041;-63
2021/10/30 00:34:55;;;;;;;8.33;7.50;;;;;;;16.84;49.10;101052.91;1829329;78;21032;-61
2021/10/30 00:37:21;;;;;;;8.70;7.80;;;;;;;16.83;49.09;101057.95;1811709;78;20977;-62
2021/10/30 00:39:48;;;;;;;8.18;7.10;;;;;;;16.82;49.06;101055.76;1796765;79;21079;-62
2021/10/30 00:42:15;;;;;;;7.70;7.00;;;;;;;16.82;49.12;101057.10;1798904;77;21240;-62
2021/10/30 00:44:41;;;;;;;8.05;7.22;;;;;;;16.82;49.10;101057.62;1809067;77;21493;-62
2021/10/30 00:47:07;;;;;;;8.35;7.55;;;;;;;16.80;49.08;101051.56;1831858;78;20993;-62
2021/10/30 00:49:35;;;;;;;8.43;7.60;;;;;;;16.81;49.10;101062.12;1831936;77;21057;-62
2021/10/30 00:52:02;;;;;;;8.35;7.50;;;;;;;16.80;49.08;101062.30;1831737;77;20997;-64
2021/10/30 00:54:28;;;;;;;7.95;7.25;;;;;;;16.79;49.11;101056.61;1823911;78;21123;-63
2021/10/30 00:56:56;;;;;;;8.18;7.28;;;;;;;16.78;49.09;101051.73;1799142;79;21025;-62
2021/10/30 00:59:23;;;;;;;8.23;7.42;;;;;;;16.78;49.14;101062.46;1800523;78;21215;-63
2021/10/30 01:01:51;;;;;;;9.05;8.10;;;;;;;16.77;49.14;101054.62;1823646;77;21053;-63
2021/10/30 01:04:18;;;;;;;8.45;7.55;;;;;;;16.76;49.15;101052.41;1818698;78;21039;-63
2021/10/30 01:06:48;;;;;;;8.90;7.95;;;;;;;16.76;49.14;101054.27;1813963;77;21181;-62
2021/10/30 01:09:15;;;;;;;7.28;6.58;;;;;;;16.76;49.13;101051.59;1832152;78;21020;-61
2021/10/30 01:11:41;;;;;;;7.92;7.12;;;;;;;16.75;49.13;101052.62;1831899;78;20981;-62
2021/10/30 01:14:09;;;;;;;8.45;7.60;;;;;;;16.75;49.15;101053.96;1801313;77;21031;-63
2021/10/30 01:16:35;;;;;;;8.40;7.50;;;;;;;16.74;49.17;101054.44;1820749;77;20988;-63
2021/10/30 01:19:02;;;;;;;8.80;7.90;;;;;;;16.74;49.15;101060.32;1799438;79;21096;-62
2021/10/30 01:21:33;;;;;;;8.00;7.17;;;;;;;16.74;49.17;101054.44;1799275;79;21590;-62
2021/10/30 01:24:01;;;;;;;8.13;7.33;;;;;;;16.73;49.13;101058.16;1799052;79;21552;-63
2021/10/30 01:26:29;;;;;;;8.88;8.00;;;;;;;16.73;49.16;101055.95;1800079;77;21033;-62
2021/10/30 01:28:59;;;;;;;8.88;7.87;;;;;;;16.71;49.18;101050.27;1799070;78;21000;-63
2021/10/30 01:31:26;;;;;;;8.28;7.47;;;;;;;16.71;49.17;101052.95;1799107;79;22337;-62
2021/10/30 01:33:52;;;;;;;8.48;7.58;;;;;;;16.70;49.18;101054.47;1814481;77;21536;-62
2021/10/30 01:36:21;;;;;;;8.50;7.42;;;;;;;16.70;49.19;101051.27;1832021;78;21041;-62
2021/10/30 01:38:48;;;;;;;9.33;8.05;;;;;;;16.69;49.18;101050.95;1832215;78;21487;-62
2021/10/30 01:41:14;;;;;;;9.13;8.05;;;;;;;16.69;49.17;101053.64;1830664;77;21060;-62
2021/10/30 01:43:41;;;;;;;7.70;7.00;;;;;;;16.68;49.19;101055.16;1799411;77;21910;-61
2021/10/30 01:46:09;;;;;;;8.00;7.20;;;;;;;16.68;49.19;101057.32;1820177;77;21037;-63
2021/10/30 01:48:37;;;;;;;8.13;7.33;;;;;;;16.67;49.20;101057.01;1831865;77;20982;-61
2021/10/30 01:51:05;;;;;;;8.63;7.83;;;;;;;16.67;49.21;101052.16;1800122;78;21069;-61
2021/10/30 01:53:33;;;;;;;8.23;7.42;;;;;;;16.66;49.20;101055.32;1799361;78;21621;-61
2021/10/30 01:56:00;;;;;;;9.65;7.58;;;;;;;16.65;49.21;101050.98;1798833;78;23251;-63
2021/10/30 01:58:26;;;;;;;8.70;7.33;;;;;;;16.66;49.21;101047.79;1830047;77;21516;-62
2021/10/30 02:00:55;;;;;;;9.33;7.60;;;;;;;16.65;49.20;101055.01;1823453;77;21005;-63
2021/10/30 02:03:23;;;;;;;8.13;7.33;;;;;;;16.64;49.22;101057.86;1823650;77;21050;-62
2021/10/30 02:05:52;;;;;;;8.50;7.33;;;;;;;16.64;49.23;101060.55;1827474;78;21061;-62
2021/10/30 02:08:20;;;;;;;7.50;6.80;;;;;;;16.63;49.22;101063.73;1823544;77;21088;-62
2021/10/30 02:10:47;;;;;;;8.68;7.60;;;;;;;16.63;49.20;101062.88;1846197;77;21001;-63
2021/10/30 02:13:14;;;;;;;7.70;6.90;;;;;;;16.62;49.22;101064.73;1832629;77;21626;-62
2021/10/30 02:15:41;;;;;;;9.05;7.30;;;;;;;16.62;49.20;101063.91;1831786;78;21490;-62
2021/10/30 02:18:09;;;;;;;8.55;7.65;;;;;;;16.61;49.21;101063.08;1850282;77;21465;-62
2021/10/30 02:20:35;;;;;;;8.60;7.70;;;;;;;16.61;49.21;101059.54;1831403;77;21140;-62
2021/10/30 02:23:02;;;;;;;8.83;7.53;;;;;;;16.60;49.21;101061.39;1816005;77;21043;-61
2021/10/30 02:25:28;;;;;;;7.78;6.97;;;;;;;16.60;49.20;101070.78;1811493;77;21090;-62
2021/10/30 02:27:54;;;;;;;8.15;7.20;;;;;;;16.60;49.24;101068.10;1830477;78;21021;-62
2021/10/30 02:30:21;;;;;;;7.90;7.10;;;;;;;16.60;49.21;101066.76;1816016;77;21072;-61
2021/10/30 02:32:49;;;;;;;7.70;6.97;;;;;;;16.59;49.24;101073.64;1831608;77;21108;-63
2021/10/30 02:35:16;;;;;;;8.00;7.20;;;;;;;16.58;49.21;101074.66;1828104;77;20981;-61
2021/10/30 02:37:42;;;;;;;8.93;7.35;;;;;;;16.57;49.22;101076.48;1846210;77;21017;-62
2021/10/30 02:40:10;;;;;;;9.10;7.10;;;;;;;16.57;49.25;101078.34;1831517;77;21018;-61
2021/10/30 02:42:36;;;;;;;8.03;6.97;;;;;;;16.57;49.23;101079.69;1836385;77;21079;-62
2021/10/30 02:45:07;;;;;;;8.28;7.47;;;;;;;16.55;49.24;101081.19;1841960;77;21199;-62
2021/10/30 02:47:34;;;;;;;7.78;7.08;;;;;;;16.55;49.25;101081.19;1832153;77;21485;-63
2021/10/30 02:50:00;;;;;;;7.22;6.53;;;;;;;16.55;49.25;101080.37;1816156;78;21485;-63
2021/10/30 02:52:27;;;;;;;7.85;7.05;;;;;;;16.55;49.25;101083.88;1831336;77;21009;-62
2021/10/30 02:54:54;;;;;;;7.75;6.95;;;;;;;16.55;49.28;101088.41;1826009;77;21638;-65
2021/10/30 02:57:21;;;;;;;7.40;6.70;;;;;;;16.55;49.25;101083.05;1811836;77;23230;-62
2021/10/30 02:59:51;;;;;;;8.18;7.37;;;;;;;16.53;49.25;101079.19;1827687;77;20982;-63
2021/10/30 03:02:17;;;;;;;8.43;6.75;;;;;;;16.53;49.26;101081.88;1822436;77;21533;-62
2021/10/30 03:04:44;;;;;;;8.10;7.30;;;;;;;16.52;49.26;101086.92;1845818;77;21029;-62
2021/10/30 03:07:10;;;;;;;7.25;6.55;;;;;;;16.51;49.30;101080.73;1831822;78;21021;-63
2021/10/30 03:09:37;;;;;;;7.58;6.87;;;;;;;16.52;49.27;101088.27;1830385;77;21089;-63
2021/10/30 03:12:06;;;;;;;7.70;6.90;;;;;;;16.51;49.29;101079.88;1841298;77;20977;-62
2021/10/30 03:14:34;;;;;;;7.00;6.40;;;;;;;16.50;49.27;101079.05;1861145;77;20996;-62
2021/10/30 03:17:02;;;;;;;7.78;6.97;;;;;;;16.50;49.30;101084.41;1829672;77;21005;-62
2021/10/30 03:19:29;;;;;;;7.70;6.97;;;;;;;16.49;49.28;101089.43;1832695;76;21482;-62
2021/10/30 03:21:56;;;;;;;8.30;7.50;;;;;;;16.48;49.29;101076.22;1828311;78;21913;-62
2021/10/30 03:24:22;;;;;;;8.30;7.50;;;;;;;16.46;49.29;101080.41;1820236;77;21041;-62
2021/10/30 03:26:49;;;;;;;7.60;6.70;;;;;;;16.47;49.29;101079.38;1824892;77;21055;-63
2021/10/30 03:29:15;;;;;;;7.35;6.60;;;;;;;16.47;49.29;101078.04;1762313;81;21018;-62
2021/10/30 03:31:41;;;;;;;7.42;6.72;;;;;;;16.46;49.28;101080.92;1781788;80;21599;-62
2021/10/30 03:34:08;;;;;;;8.33;7.45;;;;;;;16.46;49.32;101083.09;1775432;80;21189;-61
2021/10/30 03:36:34;;;;;;;7.50;6.80;;;;;;;16.46;49.30;101088.97;1778916;79;21024;-62
2021/10/30 03:39:01;;;;;;;7.60;6.87;;;;;;;16.46;49.33;101088.97;1770922;80;21018;-62
2021/10/30 03:41:28;;;;;;;7.85;7.00;;;;;;;16.45;49.33;101089.45;1765990;80;21096;-61
2021/10/30 03:43:54;;;;;;;7.17;6.47;;;;;;;16.46;49.30;101083.60;1774123;80;21032;-61
2021/10/30 03:46:22;;;;;;;9.15;6.62;;;;;;;16.46;49.33;101095.67;1765489;80;21148;-62
2021/10/30 03:48:48;;;;;;;7.42;6.70;;;;;;;16.44;49.30;101091.82;1764823;80;21045;-63
2021/10/30 03:51:15;;;;;;;7.60;6.83;;;;;;;16.44;49.31;101089.66;1775231;80;21051;-62
2021/10/30 03:53:42;;;;;;;7.37;6.67;;;;;;;16.43;49.30;101091.98;1769397;79;21021;-62
2021/10/30 03:56:08;;;;;;;6.90;6.30;;;;;;;16.44;49.31;101089.66;1771889;80;21076;-62
2021/10/30 03:58:35;;;;;;;7.67;6.60;;;;;;;16.43;49.32;101086.62;1786505;79;21103;-62
2021/10/30 04:01:01;;;;;;;7.80;7.00;;;;;;;16.43;49.30;101092.81;1789375;78;21031;-62
2021/10/30 04:03:28;;;;;;;7.87;6.47;;;;;;;16.42;49.32;101093.02;1749616;80;20998;-63
2021/10/30 04:05:55;;;;;;;7.45;6.67;;;;;;;16.41;49.33;101089.98;1769834;79;21089;-61
2021/10/30 04:08:21;;;;;;;7.00;6.30;;;;;;;16.42;49.32;101087.65;1788378;79;21021;-62
2021/10/30 04:10:48;;;;;;;7.90;6.65;;;;;;;16.41;49.34;101079.26;1800433;79;21130;-62
2021/10/30 04:13:15;;;;;;;6.78;6.15;;;;;;;16.41;49.31;101086.79;1799487;79;21065;-62
2021/10/30 04:15:41;;;;;;;7.55;6.75;;;;;;;16.40;49.33;101080.25;1765934;80;21038;-61
2021/10/30 04:18:08;;;;;;;7.28;6.58;;;;;;;16.39;49.31;101082.11;1753635;80;21026;-62
2021/10/30 04:20:34;;;;;;;7.05;6.35;;;;;;;16.40;49.33;101076.23;1784656;78;21623;-62
2021/10/30 04:23:01;;;;;;;7.03;6.33;;;;;;;16.40;49.34;101089.64;1757639;79;21130;-62
2021/10/30 04:25:27;;;;;;;6.83;6.12;;;;;;;16.39;49.34;101087.47;1760283;80;21002;-62
2021/10/30 04:27:54;;;;;;;6.75;6.05;;;;;;;16.39;49.35;101083.45;1770300;79;21078;-62
2021/10/30 04:30:20;;;;;;;6.42;5.83;;;;;;;16.38;49.32;101076.42;1762652;80;21045;-62
2021/10/30 04:32:47;;;;;;;6.62;5.80;;;;;;;16.39;49.37;101081.28;1765066;80;21037;-62
2021/10/30 04:35:13;;;;;;;6.85;6.12;;;;;;;16.38;49.35;101075.57;1770125;80;21086;-62
2021/10/30 04:37:40;;;;;;;7.05;6.37;;;;;;;16.38;49.35;101086.30;1773673;80;21490;-62
2021/10/30 04:40:07;;;;;;;6.50;5.90;;;;;;;16.38;49.35;101084.95;1757093;80;21039;-62
2021/10/30 04:42:34;;;;;;;6.70;6.10;;;;;;;16.37;49.38;101088.66;1783673;80;21025;-62
2021/10/30 04:45:00;;;;;;;7.47;6.67;;;;;;;16.38;49.35;101090.31;1752729;80;21046;-62
2021/10/30 04:47:27;;;;;;;6.62;6.00;;;;;;;16.37;49.35;101094.02;1773535;78;21089;-63
2021/10/30 04:49:53;;;;;;;6.35;5.80;;;;;;;16.37;49.38;101098.88;1752091;80;21020;-62
2021/10/30 04:52:19;;;;;;;7.47;6.60;;;;;;;16.37;49.35;101098.05;1766881;78;21123;-61
2021/10/30 04:54:46;;;;;;;6.25;5.55;;;;;;;16.36;49.36;101096.36;1769924;78;21549;-62
2021/10/30 04:57:12;;;;;;;6.62;5.92;;;;;;;16.35;49.35;101090.17;1761590;78;21072;-62
2021/10/30 04:59:38;;;;;;;7.03;6.30;;;;;;;16.36;49.34;101099.05;1769728;79;21057;-62
2021/10/30 05:02:05;;;;;;;7.45;6.78;;;;;;;16.35;49.35;101095.53;1769712;78;21081;-62
2021/10/30 05:04:32;;;;;;;6.90;6.20;;;;;;;16.35;49.36;101088.83;1773707;78;21492;-62
2021/10/30 05:06:59;;;;;;;7.30;6.60;;;;;;;16.36;49.34;101095.02;1773529;78;21114;-62
2021/10/30 05:09:25;;;;;;;7.37;6.67;;;;;;;16.35;49.33;101096.05;1773014;78;21061;-63
2021/10/30 05:11:53;;;;;;;7.50;6.80;;;;;;;16.35;49.35;101094.70;1770289;78;20994;-63
2021/10/30 05:14:20;;;;;;;6.58;5.87;;;;;;;16.33;49.35;101093.53;1769420;78;21041;-62
2021/10/30 05:16:48;;;;;;;7.03;6.42;;;;;;;16.33;49.32;101091.36;1772749;78;21028;-62
2021/10/30 05:19:16;;;;;;;7.30;6.60;;;;;;;16.33;49.35;101091.36;1764853;78;21006;-62
2021/10/30 05:21:43;;;;;;;6.03;5.42;;;;;;;16.33;49.35;101101.58;1757181;78;21042;-62
2021/10/30 05:24:10;;;;;;;7.10;6.40;;;;;;;16.33;49.35;101100.23;1778334;78;21145;-62
2021/10/30 05:26:37;;;;;;;6.17;5.58;;;;;;;16.33;49.36;101099.41;1769312;78;21036;-62
2021/10/30 05:29:03;;;;;;;6.75;6.10;;;;;;;16.32;49.36;101102.57;1769934;78;21038;-63
2021/10/30 05:31:30;;;;;;;6.72;6.03;;;;;;;16.32;49.36;101099.89;1769925;78;21038;-62
2021/10/30 05:33:58;;;;;;;9.83;7.00;;;;;;;16.33;49.36;101102.09;1769680;78;21002;-62
2021/10/30 05:36:31;;;;;;;6.28;5.67;;;;;;;16.33;49.36;101107.45;1764619;78;21128;-61
2021/10/30 05:38:59;;;;;;;7.50;6.53;;;;;;;16.32;49.36;101111.95;1758987;79;21094;-62
2021/10/30 05:41:25;;;;;;;7.05;6.35;;;;;;;16.31;49.36;101112.47;1766168;78;21498;-63
2021/10/30 05:43:52;;;;;;;6.33;5.72;;;;;;;16.31;49.35;101114.32;1766847;78;21040;-63
2021/10/30 05:46:18;;;;;;;6.28;5.67;;;;;;;16.31;49.35;101117.00;1772519;78;21041;-61
2021/10/30 05:48:45;;;;;;;7.40;6.62;;;;;;;16.31;49.36;101118.34;1765481;78;22925;-63
2021/10/30 05:51:12;;;;;;;6.58;5.92;;;;;;;16.30;49.38;101122.88;1762232;78;21548;-62
2021/10/30 05:53:38;;;;;;;7.45;6.75;;;;;;;16.30;49.36;101120.20;1766074;80;21073;-63
2021/10/30 05:56:04;;;;;;;6.87;6.17;;;;;;;16.30;49.36;101118.86;1770854;78;21025;-62
2021/10/30 05:58:31;;;;;;;6.30;5.70;;;;;;;16.30;49.38;101123.36;1768926;78;21016;-62
2021/10/30 06:00:57;;;;;;;5.70;5.20;;;;;;;16.30;49.36;101121.54;1764105;78;21134;-64
2021/10/30 06:03:24;;;;;;;6.10;5.50;;;;;;;16.30;49.36;101122.88;1773202;78;21672;-62
2021/10/30 06:05:50;;;;;;;6.83;6.08;;;;;;;16.31;49.33;101129.07;1772006;78;21033;-62
2021/10/30 06:08:17;;;;;;;6.95;6.28;;;;;;;16.30;49.37;101137.63;1759469;78;21076;-62
2021/10/30 06:10:43;;;;;;;6.45;5.85;;;;;;;16.30;49.34;101136.29;1768423;78;21024;-62
2021/10/30 06:13:09;;;;;;;7.15;6.45;;;;;;;16.30;49.34;101129.58;1769365;80;21538;-63
2021/10/30 06:15:35;;;;;;;7.30;6.47;;;;;;;16.30;49.34;101136.29;1765893;79;21037;-62
2021/10/30 06:18:02;;;;;;;6.72;5.53;;;;;;;16.30;49.34;101136.77;1767283;78;21049;-63
2021/10/30 06:20:29;;;;;;;6.60;6.00;;;;;;;16.30;49.33;101136.29;1766894;78;21040;-62
2021/10/30 06:22:55;;;;;;;6.72;6.12;;;;;;;16.31;49.35;101136.60;1766821;78;21026;-62
2021/10/30 06:25:21;;;;;;;7.05;6.35;;;;;;;16.31;49.33;101141.14;1771083;78;21116;-62
2021/10/30 06:27:48;;;;;;;7.65;6.95;;;;;;;16.30;49.32;101134.95;1768844;78;21636;-62
2021/10/30 06:30:15;;;;;;;7.37;6.28;;;;;;;16.30;49.31;101136.29;1773451;78;21074;-62
2021/10/30 06:32:41;;;;;;;6.80;6.10;;;;;;;16.31;49.32;101137.95;1770632;78;21016;-62
2021/10/30 06:35:09;;;;;;;6.92;6.28;;;;;;;16.31;49.32;101139.80;1774890;78;21052;-62
2021/10/30 06:37:39;;;;;;;7.37;6.60;;;;;;;16.30;49.30;101147.02;1778505;78;21129;-63
2021/10/30 06:40:10;;;;;;;6.87;6.17;;;;;;;16.32;49.31;101145.48;1762068;78;21017;-61
2021/10/30 06:42:36;;;;;;;7.42;6.35;;;;;;;16.31;49.32;101139.28;1775394;78;21119;-63
2021/10/30 06:45:04;;;;;;;8.00;7.20;;;;;;;16.31;49.31;101147.33;1768196;78;21072;-63
2021/10/30 06:47:31;;;;;;;7.58;6.80;;;;;;;16.33;49.31;101140.97;1772020;79;21053;-62
2021/10/30 06:49:59;;;;;;;7.85;6.28;;;;;;;16.33;49.31;101140.97;1764850;80;21104;-63
2021/10/30 06:52:31;;;;;;;7.58;6.83;;;;;;;16.33;49.31;101143.14;1748992;79;21045;-62
2021/10/30 06:54:55;;;;;;;7.05;6.35;;;;;;;16.33;49.26;101145.00;1764302;79;21104;-62
2021/10/30 06:57:21;;;;;;;7.33;6.62;;;;;;;16.33;49.29;101140.46;1763142;80;21080;-63
2021/10/30 06:59:47;;;;;;;7.70;6.60;;;;;;;16.32;49.29;101141.45;1772087;80;21052;-63
2021/10/30 07:02:15;;;;;;;7.03;6.30;;;;;;;16.34;49.30;101145.31;1773261;80;21051;-62
2021/10/30 07:04:42;;;;;;;7.45;6.60;;;;;;;16.34;49.29;101143.97;1760619;80;21010;-65
2021/10/30 07:07:08;;;;;;;7.37;6.67;;;;;;;16.34;49.28;101147.99;1774314;80;21529;-65
2021/10/30 07:09:36;;;;;;;7.58;6.28;;;;;;;16.34;49.30;101149.33;1764758;80;21322;-63
2021/10/30 07:12:03;;;;;;;7.42;6.53;;;;;;;16.26;49.28;101130.94;1763134;79;21516;-63
2021/10/30 07:14:30;;;;;;;8.23;7.42;;;;;;;16.34;49.29;101143.97;1775621;79;21146;-63
2021/10/30 07:16:57;;;;;;;6.92;6.33;;;;;;;16.35;49.28;101148.34;1764561;80;21013;-63
2021/10/30 07:19:24;;;;;;;7.87;6.92;;;;;;;16.35;49.27;101149.17;1785027;79;21390;-62
2021/10/30 07:21:51;;;;;;;7.60;6.85;;;;;;;16.35;49.26;101154.53;1772273;80;21113;-62
2021/10/30 07:24:18;;;;;;;7.97;6.60;;;;;;;16.35;49.26;101150.51;1768587;80;21049;-62
2021/10/30 07:26:44;;;;;;;7.90;6.80;;;;;;;16.36;49.26;101145.49;1776040;79;21255;-64
2021/10/30 07:29:10;;;;;;;7.58;6.87;;;;;;;16.32;49.25;101154.86;1774172;79;21663;-63
2021/10/30 07:31:36;;;;;;;8.18;7.37;;;;;;;16.37;49.26;101163.75;1772647;80;21585;-62
2021/10/30 07:34:03;;;;;;;7.92;6.95;;;;;;;16.38;49.22;101160.05;1741015;81;21057;-64
2021/10/30 07:36:29;;;;;;;8.25;7.45;;;;;;;16.38;49.24;101165.41;1737189;82;21077;-62
2021/10/30 07:38:56;;;;;;;7.62;6.87;;;;;;;16.38;49.22;101160.05;1774647;79;21144;-63
2021/10/30 07:41:23;;;;;;;9.15;8.18;;;;;;;16.39;49.20;101161.73;1732379;81;21021;-63
2021/10/30 07:43:53;;;;;;;7.97;7.17;;;;;;;16.38;49.21;101163.59;1762552;80;21045;-63
2021/10/30 07:46:17;;;;;;;7.80;7.00;;;;;;;16.40;49.20;101160.71;1767653;80;21053;-62
2021/10/30 07:48:44;;;;;;;8.40;7.50;;;;;;;16.40;49.20;101162.91;1770293;80;21030;-62
2021/10/30 07:51:10;;;;;;;8.53;7.65;;;;;;;16.41;49.18;101163.73;1770007;79;22384;-63
2021/10/30 07:53:36;;;;;;;8.40;7.28;;;;;;;16.41;49.19;101163.73;1775005;80;21020;-63
2021/10/30 07:56:04;;;;;;;9.58;7.10;;;;;;;16.42;49.18;101165.42;1765487;79;21041;-63
2021/10/30 07:58:30;;;;;;;10.23;8.43;;;;;;;16.42;49.17;101167.59;1772201;80;21065;-61
2021/10/30 08:00:58;;;;;;;8.15;7.35;;;;;;;16.42;49.16;101174.30;1771670;80;21038;-62
2021/10/30 08:03:24;;;;;;;7.50;6.72;;;;;;;16.44;49.16;101176.82;1779207;80;21237;-66
2021/10/30 08:05:51;;;;;;;8.68;7.78;;;;;;;16.44;49.15;101179.50;1774003;80;21080;-68
2021/10/30 08:08:17;;;;;;;8.23;7.37;;;;;;;16.43;49.15;101179.98;1774926;80;21023;-67
2021/10/30 08:10:44;;;;;;;8.08;7.28;;;;;;;16.45;49.15;101179.30;1790753;78;21053;-68
2021/10/30 08:13:11;;;;;;;7.62;6.87;;;;;;;16.44;49.15;101177.65;1760791;80;21058;-67
2021/10/30 08:15:38;;;;;;;8.48;7.10;;;;;;;16.45;49.11;101178.48;1765769;80;21239;-66
2021/10/30 08:18:05;;;;;;;8.33;7.53;;;;;;;16.46;49.12;101178.83;1777460;79;21588;-68
2021/10/30 08:20:32;;;;;;;7.50;6.78;;;;;;;16.45;49.11;101175.80;1790975;80;21001;-66
2021/10/30 08:22:59;;;;;;;8.05;7.25;;;;;;;16.46;49.08;101178.31;1786110;79;21016;-67
2021/10/30 08:25:25;;;;;;;7.90;7.10;;;;;;;16.45;49.10;101176.63;1792478;78;21016;-67
2021/10/30 08:27:53;;;;;;;8.08;7.28;;;;;;;16.45;49.08;101181.98;1792470;80;21966;-67
2021/10/30 08:30:19;;;;;;;8.08;7.08;;;;;;;16.47;49.08;101187.19;1792069;78;21586;-67
2021/10/30 08:32:46;;;;;;;7.90;7.12;;;;;;;16.47;49.06;101178.63;1791897;79;21573;-67
2021/10/30 08:35:12;;;;;;;8.05;7.35;;;;;;;16.47;49.05;101175.11;1759224;80;21099;-67
2021/10/30 08:37:39;;;;;;;8.10;7.30;;;;;;;16.48;49.05;101183.51;1794819;78;21036;-67
2021/10/30 08:40:07;;;;;;;9.18;7.70;;;;;;;16.50;49.04;101184.17;1769985;81;21525;-67
2021/10/30 08:42:33;;;;;;;8.75;7.90;;;;;;;16.48;49.02;101175.46;1752249;80;20993;-67
2021/10/30 08:45:00;;;;;;;8.15;7.35;;;;;;;16.49;49.02;101175.78;1710638;81;21060;-68
2021/10/30 08:47:26;;;;;;;8.55;7.70;;;;;;;16.50;49.01;101181.49;1806038;78;21111;-68
2021/10/30 08:49:54;;;;;;;9.18;8.35;;;;;;;16.50;49.00;101185.00;1788364;79;21465;-67
2021/10/30 08:52:21;;;;;;;7.47;6.78;;;;;;;16.51;49.04;101177.78;1773904;78;21532;-67
2021/10/30 08:54:47;;;;;;;9.05;8.10;;;;;;;16.51;49.02;101172.42;1768458;78;20999;-66
2021/10/30 08:57:14;;;;;;;8.58;7.42;;;;;;;16.52;48.97;101174.11;1770130;79;21004;-68
2021/10/30 08:59:45;;;;;;;8.25;7.45;;;;;;;16.52;48.97;101171.42;1781783;78;21055;-67
2021/10/30 09:02:30;;;;;;;8.95;8.05;;;;;;;16.53;48.97;101170.40;1785939;78;21041;-67
2021/10/30 09:05:10;;;;;;;8.93;8.03;;;;;;;16.53;48.95;101166.38;1769051;78;21123;-67
2021/10/30 09:07:37;;;;;;;9.38;8.48;;;;;;;16.53;48.93;101170.91;1777872;78;21037;-67
2021/10/30 09:10:14;;;;;;;8.60;7.72;;;;;;;16.53;48.96;101170.40;1762893;78;21543;-67
2021/10/30 09:12:49;;;;;;;8.83;7.92;;;;;;;16.53;48.96;101177.10;1765433;78;21037;-68
2021/10/30 09:15:19;;;;;;;8.20;7.40;;;;;;;16.53;48.93;101178.95;1771099;78;21540;-67
2021/10/30 09:17:48;;;;;;;9.50;8.50;;;;;;;16.53;48.95;101172.25;1771012;78;21546;-67
2021/10/30 09:20:15;;;;;;;8.85;7.95;;;;;;;16.53;48.96;101167.72;1769008;78;21547;-66
2021/10/30 09:22:54;;;;;;;8.93;8.03;;;;;;;16.53;48.98;101177.62;1758149;78;21043;-66
2021/10/30 09:25:21;;;;;;;9.20;8.30;;;;;;;16.53;48.92;101169.05;1758124;80;21037;-67
2021/10/30 09:27:53;;;;;;;9.98;8.65;;;;;;;16.53;48.92;101168.23;1795078;78;21009;-67
2021/10/30 09:30:24;;;;;;;9.85;8.15;;;;;;;16.53;48.95;101179.79;1774852;78;21128;-67
2021/10/30 09:32:56;;;;;;;9.78;8.55;;;;;;;16.54;48.94;101184.16;1785878;79;21029;-68
2021/10/30 09:35:27;;;;;;;10.53;9.30;;;;;;;16.54;48.92;101180.64;1776498;78;21085;-68
2021/10/30 09:37:53;;;;;;;9.50;8.50;;;;;;;16.54;48.91;101174.77;1759907;78;21015;-67
2021/10/30 09:40:26;;;;;;;10.25;9.25;;;;;;;16.55;48.90;101177.77;1764631;78;21079;-67
2021/10/30 09:43:16;;;;;;;10.40;9.40;;;;;;;16.54;48.90;101181.48;1768025;78;21095;-67
2021/10/30 09:45:46;;;;;;;10.10;8.90;;;;;;;16.54;48.90;101173.42;1739518;78;21101;-67
2021/10/30 09:48:15;;;;;;;9.48;8.58;;;;;;;16.53;48.90;101159.67;1772532;80;21064;-67
2021/10/30 09:50:42;;;;;;;10.13;9.08;;;;;;;16.53;48.88;101163.69;1797715;78;20995;-67
2021/10/30 09:53:31;;;;;;;9.25;8.20;;;;;;;16.53;48.90;101170.40;1788474;80;21033;-67
2021/10/30 09:56:12;;;;;;;9.48;8.48;;;;;;;16.53;48.88;101167.72;1791148;78;21746;-66
2021/10/30 09:58:45;;;;;;;9.68;8.75;;;;;;;16.53;48.89;101161.01;1773271;78;21021;-67
2021/10/30 10:03:32;;;;;;;9.98;9.08;;;;;;;16.57;48.88;101161.50;1826969;77;28664;-67
2021/10/30 10:06:02;;;;;;;9.75;8.73;;;;;;;16.51;48.87;101159.00;1783446;78;20981;-67
2021/10/30 10:08:28;;;;;;;10.63;9.58;;;;;;;16.53;48.88;101156.98;1787487;79;21103;-68
2021/10/30 10:10:57;;;;;;;10.65;9.55;;;;;;;16.53;48.86;101161.52;1769246;80;21660;-68
2021/10/30 10:13:30;;;;;;;9.45;8.50;;;;;;;16.53;48.86;101169.57;1778514;80;21024;-68
2021/10/30 10:15:59;;;;;;;10.32;9.15;;;;;;;16.53;48.84;101159.67;1725624;81;21025;-68
2021/10/30 10:18:26;;;;;;;9.75;8.75;;;;;;;16.53;48.85;101161.52;1756116;80;21200;-67
2021/10/30 10:20:53;;;;;;;10.30;9.30;;;;;;;16.52;48.85;101162.03;1767312;78;22094;-68
2021/10/30 10:23:19;;;;;;;9.55;8.70;;;;;;;16.52;48.84;101170.08;1778443;80;21035;-68
2021/10/30 10:25:51;;;;;;;10.30;9.30;;;;;;;16.52;48.83;101160.70;1765032;80;20962;-67
2021/10/30 10:28:23;;;;;;;9.48;8.23;;;;;;;16.53;48.82;101162.86;1775085;79;21128;-67
2021/10/30 10:30:56;;;;;;;9.15;8.25;;;;;;;16.53;48.81;101162.86;1780428;79;21127;-67
2021/10/30 10:33:23;;;;;;;10.35;9.33;;;;;;;16.52;48.78;101160.70;1787324;79;21784;-68
2021/10/30 10:36:18;;;;;;;10.38;9.28;;;;;;;16.52;48.82;101153.98;1814638;79;21026;-67
2021/10/30 10:39:01;;;;;;;9.48;8.58;;;;;;;16.51;48.79;101154.98;1808769;78;21088;-68
2021/10/30 10:41:43;;;;;;;;;;;;;;;16.50;48.82;101152.81;1769919;79;21051;-67
2021/10/30 10:44:12;;;;;;;11.63;9.55;;;;;;;16.48;48.81;101155.34;1773352;78;20182;-67
2021/10/30 10:46:56;;;;;;;9.20;8.30;;;;;;;16.45;48.89;101153.83;1792110;78;21957;-68
2021/10/30 10:49:46;;;;;;;9.58;8.68;;;;;;;16.44;48.88;101151.34;1748382;80;21077;-67
2021/10/30 10:52:20;;;;;;;10.13;9.10;;;;;;;16.45;48.88;101151.66;1794279;79;21001;-67
2021/10/30 10:55:04;;;;;;;10.00;9.08;;;;;;;16.44;48.88;101139.27;1773605;78;21493;-67
2021/10/30 10:57:35;;;;;;;9.40;8.50;;;;;;;16.44;48.89;101141.44;1791959;78;21976;-67
2021/10/30 11:00:12;;;;;;;10.13;9.13;;;;;;;16.44;48.88;101142.78;1788196;78;21541;-67
2021/10/30 11:02:52;;;;;;;10.43;9.43;;;;;;;16.43;48.90;101137.58;1771933;79;21034;-67
2021/10/30 11:05:29;;;;;;;9.90;8.93;;;;;;;16.43;48.88;101137.07;1757408;79;21572;-68
2021/10/30 11:08:10;;;;;;;10.25;9.25;;;;;;;16.44;48.89;101134.73;1770001;80;21053;-67
2021/10/30 11:10:40;;;;;;;10.00;9.00;;;;;;;16.44;48.89;101136.59;1771055;79;21046;-68
2021/10/30 11:13:09;;;;;;;9.73;8.80;;;;;;;16.43;48.88;101128.19;1755343;80;21408;-68
2021/10/30 11:15:56;;;;;;;9.83;8.83;;;;;;;16.44;48.87;101128.54;1760115;79;20999;-69
2021/10/30 11:21:21;;;;;;;9.88;8.98;;;;;;;16.43;48.87;101127.68;1762993;79;21022;-68
2021/10/30 11:23:52;;;;;;;10.75;9.73;;;;;;;16.43;48.84;101126.85;1736834;80;21069;-66
2021/10/30 11:26:32;;;;;;;11.20;10.05;;;;;;;16.43;48.89;101120.15;1764086;80;21683;-67
2021/10/30 11:29:11;;;;;;;10.63;9.63;;;;;;;16.42;48.89;101125.20;1759516;79;21066;-66
2021/10/30 11:31:40;;;;;;;9.93;8.93;;;;;;;16.41;48.87;101121.66;1770669;79;21029;-68
2021/10/30 11:34:11;;;;;;;10.35;9.38;;;;;;;16.40;48.90;101115.98;1755790;80;21067;-67